createdAt,value
2018-02-20T00:01:58.545Z,87.80
2018-02-20T00:04:26.043Z,87.80
2018-02-20T00:06:54.274Z,88.10
2018-02-20T00:09:22.503Z,89.00
2018-02-20T00:11:49.986Z,88.00
2018-02-20T00:14:17.471Z,88.10
2018-02-20T00:16:45.718Z,88.10
2018-02-20T00:19:13.174Z,88.20
2018-02-20T00:21:40.659Z,88.10
2018-02-20T00:24:08.135Z,88.30
2018-02-20T00:26:35.618Z,88.30
2018-02-20T00:29:03.851Z,88.20
2018-02-20T00:31:32.105Z,88.30
2018-02-20T00:33:59.581Z,88.20
2018-02-20T00:36:27.826Z,88.20
2018-02-20T00:38:55.291Z,88.20
2018-02-20T00:41:22.819Z,88.20
2018-02-20T00:43:51.046Z,88.20
2018-02-20T00:46:18.514Z,88.10
2018-02-20T00:48:46.045Z,88.10
2018-02-20T00:51:13.518Z,88.10
2018-02-20T00:53:41.003Z,88.10
2018-02-20T00:56:08.458Z,88.10
2018-02-20T00:58:36.688Z,88.10
2018-02-20T01:01:04.183Z,88.10
2018-02-20T01:03:31.645Z,88.80
2018-02-20T01:05:59.124Z,88.10
2018-02-20T01:08:26.610Z,88.10
2018-02-20T01:10:54.103Z,88.20
2018-02-20T01:13:21.578Z,88.40
2018-02-20T01:15:49.034Z,88.50
2018-02-20T01:18:17.295Z,88.80
2018-02-20T01:20:44.767Z,88.40
2018-02-20T01:23:13.023Z,88.50
2018-02-20T01:25:40.482Z,88.40
2018-02-20T01:28:07.962Z,88.70
2018-02-20T01:30:36.215Z,88.80
2018-02-20T01:33:03.709Z,88.80
2018-02-20T01:35:31.940Z,88.90
2018-02-20T01:37:59.416Z,88.80
2018-02-20T01:40:26.904Z,88.90
2018-02-20T01:42:54.381Z,88.70
2018-02-20T01:45:21.866Z,88.80
2018-02-20T01:47:49.322Z,88.90
2018-02-20T01:50:16.814Z,89.00
2018-02-20T01:52:45.158Z,88.90
2018-02-20T01:55:12.619Z,89.00
2018-02-20T01:57:40.106Z,89.10
2018-02-20T02:00:08.366Z,89.10
2018-02-20T02:02:35.846Z,89.10
2018-02-20T02:05:04.202Z,89.30
2018-02-20T02:07:31.678Z,89.10
2018-02-20T02:09:59.159Z,89.10
2018-02-20T02:12:26.615Z,89.10
2018-02-20T02:14:54.101Z,89.10
2018-02-20T02:17:21.566Z,89.20
2018-02-20T02:19:49.243Z,89.10
2018-02-20T02:22:16.729Z,89.10
2018-02-20T02:24:44.959Z,89.30
2018-02-20T02:27:12.451Z,89.20
2018-02-20T02:29:40.683Z,89.40
2018-02-20T02:32:08.170Z,89.40
2018-02-20T02:34:35.656Z,89.30
2018-02-20T02:37:03.911Z,89.30
2018-02-20T02:39:31.370Z,89.30
2018-02-20T02:41:58.854Z,89.20
2018-02-20T02:44:26.334Z,89.20
2018-02-20T02:46:53.793Z,89.30
2018-02-20T02:49:21.291Z,89.30
2018-02-20T02:51:48.771Z,89.50
2018-02-20T02:54:17.021Z,89.60
2018-02-20T02:56:44.502Z,89.50
2018-02-20T02:59:12.766Z,89.60
2018-02-20T03:01:40.271Z,89.50
2018-02-20T03:04:07.731Z,89.50
2018-02-20T03:06:35.223Z,89.40
2018-02-20T03:09:02.682Z,89.40
2018-02-20T03:11:30.184Z,89.50
2018-02-20T03:13:57.652Z,89.50
2018-02-20T03:16:25.115Z,89.60
2018-02-20T03:18:52.618Z,89.70
2018-02-20T03:21:20.082Z,89.70
2018-02-20T03:23:48.307Z,89.60
2018-02-20T03:26:15.794Z,89.60
2018-02-20T03:28:43.262Z,89.60
2018-02-20T03:31:10.768Z,89.60
2018-02-20T03:33:38.247Z,89.70
2018-02-20T03:36:06.515Z,89.60
2018-02-20T03:38:33.976Z,89.60
2018-02-20T03:41:01.438Z,89.60
2018-02-20T03:43:28.931Z,90.00
2018-02-20T03:45:56.902Z,89.60
2018-02-20T03:48:25.177Z,89.60
2018-02-20T03:50:52.686Z,89.60
2018-02-20T03:53:20.155Z,89.60
2018-02-20T03:55:48.372Z,89.50
2018-02-20T03:58:15.826Z,89.50
2018-02-20T04:00:44.042Z,89.70
2018-02-20T04:03:11.540Z,89.70
2018-02-20T04:05:39.008Z,89.70
2018-02-20T04:08:06.470Z,89.80
2018-02-20T04:10:34.729Z,89.70
2018-02-20T04:13:02.198Z,89.80
2018-02-20T04:15:30.403Z,89.80
2018-02-20T04:17:57.867Z,89.70
2018-02-20T04:20:25.334Z,89.70
2018-02-20T04:22:52.803Z,89.60
2018-02-20T04:25:20.295Z,89.60
2018-02-20T04:27:47.750Z,89.50
2018-02-20T04:30:15.311Z,89.50
2018-02-20T04:32:43.529Z,89.60
2018-02-20T04:35:10.963Z,89.60
2018-02-20T04:37:38.422Z,89.70
2018-02-20T04:40:06.026Z,89.80
2018-02-20T04:42:33.494Z,89.90
2018-02-20T04:45:01.023Z,89.90
2018-02-20T04:47:28.483Z,90.00
2018-02-20T04:49:55.963Z,90.00
2018-02-20T04:52:23.412Z,89.90
2018-02-20T04:54:50.883Z,89.90
2018-02-20T04:57:18.326Z,89.80
2018-02-20T04:59:45.783Z,89.80
2018-02-20T05:02:13.291Z,89.80
2018-02-20T05:04:41.530Z,89.70
2018-02-20T05:07:08.969Z,89.70
2018-02-20T05:09:36.430Z,89.70
2018-02-20T05:12:03.903Z,89.60
2018-02-20T05:14:31.382Z,89.70
2018-02-20T05:16:58.816Z,89.60
2018-02-20T05:19:26.299Z,89.70
2018-02-20T05:21:54.507Z,89.80
2018-02-20T05:24:21.964Z,89.80
2018-02-20T05:26:49.422Z,89.70
2018-02-20T05:29:16.903Z,89.80
2018-02-20T05:31:44.359Z,89.90
2018-02-20T05:34:12.579Z,89.80
2018-02-20T05:36:40.098Z,89.80
2018-02-20T05:39:07.582Z,89.70
2018-02-20T05:41:35.792Z,89.70
2018-02-20T05:44:03.241Z,89.60
2018-02-20T05:46:30.701Z,89.70
2018-02-20T05:48:58.143Z,89.70
2018-02-20T05:51:26.374Z,89.60
2018-02-20T05:53:53.815Z,89.60
2018-02-20T05:56:21.315Z,89.80
2018-02-20T05:58:48.802Z,89.70
2018-02-20T06:01:16.279Z,89.80
2018-02-20T06:03:43.746Z,89.80
2018-02-20T06:06:11.207Z,89.80
2018-02-20T06:08:38.659Z,89.70
2018-02-20T06:11:06.127Z,89.80
2018-02-20T06:13:34.335Z,89.80
2018-02-20T06:16:01.811Z,89.80
2018-02-20T06:18:29.267Z,89.70
2018-02-20T06:20:56.743Z,89.80
2018-02-20T06:23:24.182Z,89.80
2018-02-20T06:25:51.651Z,89.70
2018-02-20T06:28:19.102Z,89.70
2018-02-20T06:30:46.556Z,89.70
2018-02-20T06:33:14.027Z,89.70
2018-02-20T06:35:41.509Z,89.70
2018-02-20T06:38:08.953Z,89.70
2018-02-20T06:40:36.396Z,89.80
2018-02-20T06:43:03.864Z,89.80
2018-02-20T06:45:31.315Z,89.90
2018-02-20T06:47:58.759Z,90.00
2018-02-20T06:50:26.211Z,89.90
2018-02-20T06:52:53.695Z,90.00
2018-02-20T06:55:21.139Z,90.00
2018-02-20T06:57:48.608Z,90.00
2018-02-20T07:00:16.082Z,90.00
2018-02-20T07:02:43.535Z,90.10
2018-02-20T07:05:11.010Z,90.10
2018-02-20T07:07:38.451Z,90.00
2018-02-20T07:10:05.891Z,90.00
2018-02-20T07:12:33.390Z,90.00
2018-02-20T07:15:00.821Z,90.00
2018-02-20T07:17:28.296Z,90.10
2018-02-20T07:19:55.753Z,90.10
2018-02-20T07:22:23.231Z,90.10
2018-02-20T07:24:51.443Z,90.20
2018-02-20T07:27:18.907Z,90.20
2018-02-20T07:29:46.383Z,90.20
2018-02-20T07:32:13.843Z,90.20
2018-02-20T07:34:42.109Z,90.30
2018-02-20T07:37:09.575Z,90.30
2018-02-20T07:39:37.042Z,90.30
2018-02-20T07:42:04.510Z,90.40
2018-02-20T07:44:31.954Z,90.40
2018-02-20T07:46:59.430Z,90.40
2018-02-20T07:49:27.676Z,90.40
2018-02-20T07:51:55.883Z,90.40
2018-02-20T07:54:23.374Z,90.40
2018-02-20T07:56:50.831Z,90.40
2018-02-20T07:59:18.288Z,90.40
2018-02-20T08:01:45.754Z,90.40
2018-02-20T08:04:13.212Z,90.40
2018-02-20T08:06:40.676Z,90.40
2018-02-20T08:09:08.123Z,90.40
2018-02-20T08:11:35.602Z,90.50
2018-02-20T08:14:03.059Z,90.50
2018-02-20T08:16:30.531Z,90.80
2018-02-20T08:18:57.975Z,90.50
2018-02-20T08:21:26.230Z,90.60
2018-02-20T08:23:53.695Z,90.60
2018-02-20T08:26:21.148Z,90.60
2018-02-20T08:28:48.610Z,90.60
2018-02-20T08:31:16.060Z,90.60
2018-02-20T08:33:43.553Z,90.60
2018-02-20T08:36:10.994Z,90.60
2018-02-20T08:38:38.455Z,90.70
2018-02-20T08:41:05.925Z,90.70
2018-02-20T08:43:33.394Z,90.60
2018-02-20T08:46:00.850Z,90.60
2018-02-20T08:48:29.073Z,90.60
2018-02-20T08:50:56.603Z,90.60
2018-02-20T08:53:24.044Z,90.70
2018-02-20T08:55:51.516Z,90.80
2018-02-20T08:58:18.959Z,90.90
2018-02-20T09:00:46.399Z,90.90
2018-02-20T09:03:13.855Z,90.90
2018-02-20T09:05:41.291Z,90.90
2018-02-20T09:08:08.753Z,91.00
2018-02-20T09:10:36.193Z,91.00
2018-02-20T09:13:03.649Z,91.10
2018-02-20T09:15:31.091Z,91.10
2018-02-20T09:17:58.559Z,91.10
2018-02-20T09:20:26.002Z,91.00
2018-02-20T09:22:53.452Z,90.80
2018-02-20T09:25:20.945Z,90.70
2018-02-20T09:27:48.371Z,90.60
2018-02-20T09:30:15.807Z,90.60
2018-02-20T09:32:43.307Z,90.50
2018-02-20T09:35:10.752Z,90.50
2018-02-20T09:37:38.186Z,90.40
2018-02-20T09:40:05.655Z,90.40
2018-02-20T09:42:33.122Z,90.20
2018-02-20T09:45:00.579Z,89.70
2018-02-20T09:47:28.080Z,89.40
2018-02-20T09:49:55.519Z,88.80
2018-02-20T09:52:22.980Z,88.20
2018-02-20T09:54:50.422Z,87.90
2018-02-20T09:57:17.880Z,87.40
2018-02-20T09:59:45.338Z,87.10
2018-02-20T10:02:12.798Z,86.40
2018-02-20T10:04:40.239Z,85.30
2018-02-20T10:07:07.729Z,85.30
2018-02-20T10:09:35.182Z,85.30
2018-02-20T10:12:02.620Z,84.70
2018-02-20T10:14:30.083Z,83.20
2018-02-20T10:16:57.551Z,83.20
2018-02-20T10:19:25.111Z,82.40
2018-02-20T10:21:52.556Z,81.90
2018-02-20T10:24:19.995Z,81.40
2018-02-20T10:26:47.469Z,80.50
2018-02-20T10:29:14.906Z,79.30
2018-02-20T10:31:42.557Z,80.50
2018-02-20T10:34:10.135Z,79.50
2018-02-20T10:36:37.576Z,79.60
2018-02-20T10:39:05.015Z,79.10
2018-02-20T10:41:32.488Z,78.50
2018-02-20T10:43:59.979Z,78.00
2018-02-20T10:46:28.951Z,77.70
2018-02-20T10:48:56.393Z,77.70
2018-02-20T10:51:23.849Z,77.00
2018-02-20T10:53:51.307Z,76.60
2018-02-20T10:56:18.758Z,76.10
2018-02-20T10:58:46.207Z,72.80
2018-02-20T11:01:13.675Z,73.00
2018-02-20T11:03:41.115Z,70.90
2018-02-20T11:06:08.553Z,70.60
2018-02-20T11:08:36.003Z,68.90
2018-02-20T11:11:03.454Z,64.90
2018-02-20T11:13:30.923Z,64.50
2018-02-20T11:15:58.394Z,63.90
2018-02-20T11:18:25.870Z,62.00
2018-02-20T11:20:53.327Z,61.00
2018-02-20T11:23:20.795Z,59.70
2018-02-20T11:25:48.247Z,60.10
2018-02-20T11:28:15.699Z,58.70
2018-02-20T11:30:43.163Z,56.20
2018-02-20T11:33:10.610Z,56.10
2018-02-20T11:35:38.068Z,55.60
2018-02-20T11:38:05.632Z,54.60
2018-02-20T11:40:33.086Z,54.90
2018-02-20T11:43:00.540Z,53.50
2018-02-20T11:45:28.015Z,52.60
2018-02-20T11:47:55.475Z,53.60
2018-02-20T11:50:22.914Z,53.70
2018-02-20T11:52:50.387Z,53.50
2018-02-20T11:55:17.840Z,51.90
2018-02-20T11:57:45.282Z,51.50
2018-02-20T12:00:12.843Z,51.60
2018-02-20T12:02:40.274Z,50.70
2018-02-20T12:05:07.743Z,50.50
2018-02-20T12:07:35.204Z,50.70
2018-02-20T12:10:02.683Z,50.30
2018-02-20T12:12:30.134Z,50.90
2018-02-20T12:14:57.591Z,50.40
2018-02-20T12:17:25.827Z,49.50
2018-02-20T12:19:53.276Z,49.50
2018-02-20T12:22:20.731Z,49.70
2018-02-20T12:24:48.198Z,49.40
2018-02-20T12:27:15.688Z,49.30
2018-02-20T12:29:43.140Z,48.90
2018-02-20T12:32:10.597Z,50.20
2018-02-20T12:34:38.063Z,51.20
2018-02-20T12:37:05.523Z,51.60
2018-02-20T12:39:32.979Z,51.50
2018-02-20T12:42:00.426Z,52.70
2018-02-20T12:44:27.873Z,53.60
2018-02-20T12:46:55.339Z,52.70
2018-02-20T12:49:22.807Z,53.70
2018-02-20T12:51:50.258Z,53.30
2018-02-20T12:54:17.723Z,52.30
2018-02-20T12:56:45.982Z,52.10
2018-02-20T12:59:13.468Z,52.10
2018-02-20T13:01:40.860Z,52.20
2018-02-20T13:04:09.087Z,52.80
2018-02-20T13:06:36.552Z,52.80
2018-02-20T13:09:04.011Z,53.00
2018-02-20T13:11:31.513Z,53.50
2018-02-20T13:13:58.923Z,54.30
2018-02-20T13:16:26.376Z,53.30
2018-02-20T13:18:53.912Z,52.80
2018-02-20T13:21:21.355Z,52.30
2018-02-20T13:23:48.828Z,50.90
2018-02-20T13:26:16.271Z,50.90
2018-02-20T13:28:43.739Z,50.90
2018-02-20T13:31:11.240Z,49.70
2018-02-20T13:33:38.678Z,49.00
2018-02-20T13:36:06.887Z,49.40
2018-02-20T13:38:34.384Z,49.30
2018-02-20T13:41:01.860Z,49.00
2018-02-20T13:43:29.317Z,48.30
2018-02-20T13:45:56.791Z,48.00
2018-02-20T13:48:24.246Z,47.70
2018-02-20T13:50:51.769Z,47.40
2018-02-20T13:53:19.221Z,48.30
2018-02-20T13:55:46.742Z,48.80
2018-02-20T13:58:14.175Z,49.10
2018-02-20T14:00:41.640Z,50.50
2018-02-20T14:03:09.103Z,50.60
2018-02-20T14:05:36.548Z,51.30
2018-02-20T14:08:04.015Z,51.70
2018-02-20T14:10:31.463Z,52.70
2018-02-20T14:12:58.981Z,52.70
2018-02-20T14:15:26.378Z,52.60
2018-02-20T14:17:53.823Z,53.30
2018-02-20T14:20:21.280Z,53.80
2018-02-20T14:22:48.735Z,53.70
2018-02-20T14:25:16.192Z,54.30
2018-02-20T14:27:43.654Z,54.60
2018-02-20T14:30:11.106Z,55.00
2018-02-20T14:32:38.572Z,55.10
2018-02-20T14:35:06.023Z,55.60
2018-02-20T14:37:33.499Z,55.80
2018-02-20T14:40:00.950Z,55.90
2018-02-20T14:42:28.392Z,56.40
2018-02-20T14:44:55.883Z,56.70
2018-02-20T14:47:23.350Z,57.10
2018-02-20T14:49:50.778Z,57.10
2018-02-20T14:52:18.237Z,57.10
2018-02-20T14:54:45.679Z,57.80
2018-02-20T14:57:13.139Z,58.30
2018-02-20T14:59:40.598Z,58.20
2018-02-20T15:02:08.056Z,58.40
2018-02-20T15:04:35.511Z,58.70
2018-02-20T15:07:02.963Z,58.80
2018-02-20T15:09:30.440Z,59.00
2018-02-20T15:11:57.885Z,59.40
2018-02-20T15:14:25.426Z,59.80
2018-02-20T15:16:52.869Z,60.00
2018-02-20T15:19:20.298Z,60.50
2018-02-20T15:21:47.775Z,60.90
2018-02-20T15:24:15.199Z,61.50
2018-02-20T15:26:42.655Z,62.10
2018-02-20T15:29:10.924Z,62.50
2018-02-20T15:31:39.151Z,62.70
2018-02-20T15:34:06.598Z,62.80
2018-02-20T15:36:34.068Z,63.20
2018-02-20T15:39:01.531Z,63.50
2018-02-20T15:41:28.972Z,63.60
2018-02-20T15:43:56.440Z,64.30
2018-02-20T15:46:23.892Z,64.90
2018-02-20T15:48:51.350Z,65.20
2018-02-20T15:51:18.794Z,65.70
2018-02-20T15:53:46.254Z,66.40
2018-02-20T15:56:13.696Z,66.70
2018-02-20T15:58:41.127Z,67.00
2018-02-20T16:01:09.363Z,67.70
2018-02-20T16:03:36.803Z,67.70
2018-02-20T16:06:04.272Z,67.50
2018-02-20T16:08:32.488Z,68.50
2018-02-20T16:10:59.911Z,68.40
2018-02-20T16:13:27.408Z,68.90
2018-02-20T16:16:15.304Z,69.20
2018-02-20T16:18:42.742Z,69.10
2018-02-20T16:21:10.205Z,69.50
2018-02-20T16:23:37.657Z,69.60
2018-02-20T16:26:05.115Z,69.80
2018-02-20T16:28:32.584Z,70.10
2018-02-20T16:31:00.033Z,70.20
2018-02-20T16:33:27.531Z,70.40
2018-02-20T16:35:55.763Z,71.00
2018-02-20T16:38:23.975Z,71.30
2018-02-20T16:40:51.438Z,71.30
2018-02-20T16:43:18.890Z,71.50
2018-02-20T16:45:46.348Z,71.90
2018-02-20T16:48:13.804Z,71.90
2018-02-20T16:50:42.038Z,72.60
2018-02-20T16:53:09.462Z,72.60
2018-02-20T16:55:37.963Z,72.70
2018-02-20T16:58:05.495Z,72.70
2018-02-20T17:00:33.709Z,73.10
2018-02-20T17:03:01.159Z,73.10
2018-02-20T17:05:28.630Z,73.40
2018-02-20T17:07:56.067Z,73.70
2018-02-20T17:10:23.499Z,74.00
2018-02-20T17:12:51.000Z,74.10
2018-02-20T17:15:18.460Z,74.40
2018-02-20T17:17:45.899Z,74.50
2018-02-20T17:20:13.368Z,74.70
2018-02-20T17:22:40.799Z,75.00
2018-02-20T17:25:08.264Z,75.20
2018-02-20T17:27:35.701Z,75.40
2018-02-20T17:30:03.167Z,75.50
2018-02-20T17:32:30.627Z,75.60
2018-02-20T17:34:58.083Z,75.70
2018-02-20T17:37:25.560Z,75.80
2018-02-20T17:39:53.000Z,76.00
2018-02-20T17:42:20.435Z,76.10
2018-02-20T17:44:48.662Z,76.20
2018-02-20T17:47:16.131Z,76.20
2018-02-20T17:49:43.605Z,76.60
2018-02-20T17:52:11.058Z,76.60
2018-02-20T17:54:38.503Z,76.90
2018-02-20T17:57:05.994Z,77.00
2018-02-20T17:59:34.287Z,77.40
2018-02-20T18:02:01.736Z,77.30
2018-02-20T18:04:29.198Z,77.40
2018-02-20T18:06:56.635Z,77.60
2018-02-20T18:09:24.875Z,77.90
2018-02-20T18:11:52.318Z,77.80
2018-02-20T18:14:19.790Z,78.00
2018-02-20T18:16:47.999Z,78.20
2018-02-20T18:19:15.447Z,78.20
2018-02-20T18:21:43.707Z,78.40
2018-02-20T18:24:11.146Z,78.40
2018-02-20T18:26:38.611Z,78.60
2018-02-20T18:29:06.055Z,78.60
2018-02-20T18:31:33.529Z,78.80
2018-02-20T18:34:00.990Z,79.00
2018-02-20T18:36:28.451Z,79.00
2018-02-20T18:38:55.903Z,79.20
2018-02-20T18:41:23.379Z,79.30
2018-02-20T18:43:50.843Z,79.30
2018-02-20T18:46:19.050Z,79.60
2018-02-20T18:48:47.330Z,79.70
2018-02-20T18:51:14.775Z,79.70
2018-02-20T18:53:42.238Z,79.80
2018-02-20T18:56:09.695Z,79.80
2018-02-20T18:58:37.151Z,79.70
2018-02-20T19:01:04.624Z,79.90
2018-02-20T19:03:32.079Z,80.10
2018-02-20T19:05:59.535Z,80.10
2018-02-20T19:08:27.035Z,80.90
2018-02-20T19:10:54.509Z,80.40
2018-02-20T19:13:21.951Z,80.60
2018-02-20T19:15:49.419Z,80.60
2018-02-20T19:18:16.907Z,80.80
2018-02-20T19:20:44.351Z,81.00
2018-02-20T19:23:11.827Z,81.10
2018-02-20T19:25:39.279Z,81.10
2018-02-20T19:28:06.748Z,81.20
2018-02-20T19:30:34.192Z,81.30
2018-02-20T19:33:01.666Z,81.40
2018-02-20T19:35:29.110Z,81.50
2018-02-20T19:37:56.587Z,81.60
2018-02-20T19:40:24.811Z,81.60
2018-02-20T19:42:53.035Z,81.70
2018-02-20T19:45:20.483Z,81.70
2018-02-20T19:47:47.940Z,81.90
2018-02-20T19:50:15.383Z,82.10
2018-02-20T19:52:42.851Z,82.80
2018-02-20T19:55:10.296Z,82.10
2018-02-20T19:57:37.756Z,82.00
2018-02-20T20:00:05.219Z,82.00
2018-02-20T20:02:32.667Z,82.20
2018-02-20T20:05:00.137Z,82.30
2018-02-20T20:07:27.605Z,82.50
2018-02-20T20:09:55.040Z,82.70
2018-02-20T20:12:22.505Z,82.70
2018-02-20T20:14:49.954Z,82.80
2018-02-20T20:17:17.923Z,82.90
2018-02-20T20:19:45.538Z,82.90
2018-02-20T20:22:13.915Z,83.90
2018-02-20T20:24:41.331Z,83.10
2018-02-20T20:27:08.779Z,83.10
2018-02-20T20:29:36.288Z,83.20
2018-02-20T20:32:03.747Z,83.60
2018-02-20T20:34:31.954Z,83.60
2018-02-20T20:36:59.399Z,83.60
2018-02-20T20:39:26.884Z,83.50
2018-02-20T20:41:54.331Z,83.50
2018-02-20T20:44:21.803Z,83.60
2018-02-20T20:46:49.267Z,83.50
2018-02-20T20:49:16.732Z,83.70
2018-02-20T20:51:44.194Z,83.60
2018-02-20T20:54:11.652Z,83.90
2018-02-20T20:56:39.095Z,83.90
2018-02-20T20:59:06.557Z,84.10
2018-02-20T21:01:33.991Z,84.00
2018-02-20T21:04:01.456Z,84.10
2018-02-20T21:06:28.943Z,84.30
2018-02-20T21:08:56.391Z,84.20
2018-02-20T21:11:23.835Z,84.20
2018-02-20T21:13:51.321Z,84.30
2018-02-20T21:16:18.762Z,84.30
2018-02-20T21:18:46.207Z,84.40
2018-02-20T21:21:13.677Z,84.50
2018-02-20T21:23:41.114Z,84.50
2018-02-20T21:26:08.581Z,84.50
2018-02-20T21:28:36.019Z,84.60
2018-02-20T21:31:03.483Z,84.50
2018-02-20T21:33:30.966Z,84.50
2018-02-20T21:35:58.400Z,84.70
2018-02-20T21:38:25.847Z,84.60
2018-02-20T21:40:53.314Z,84.80
2018-02-20T21:43:20.797Z,84.80
2018-02-20T21:45:48.250Z,84.80
2018-02-20T21:48:15.715Z,84.80
2018-02-20T21:50:43.150Z,84.80
2018-02-20T21:53:10.610Z,84.70
2018-02-20T21:55:38.079Z,84.70
2018-02-20T21:58:05.524Z,84.70
2018-02-20T22:00:33.235Z,84.80
2018-02-20T22:03:00.692Z,84.90
2018-02-20T22:05:28.163Z,85.00
2018-02-20T22:07:55.621Z,85.00
2018-02-20T22:10:23.084Z,85.10
2018-02-20T22:12:50.538Z,85.20
2018-02-20T22:15:18.013Z,85.30
2018-02-20T22:17:45.483Z,85.20
2018-02-20T22:20:12.921Z,85.20
2018-02-20T22:22:40.386Z,85.20
2018-02-20T22:25:07.864Z,85.10
2018-02-20T22:27:35.325Z,85.20
2018-02-20T22:30:02.790Z,85.30
2018-02-20T22:32:30.251Z,85.30
2018-02-20T22:34:57.687Z,85.30
2018-02-20T22:37:25.898Z,85.50
2018-02-20T22:39:53.406Z,85.30
2018-02-20T22:42:21.260Z,85.40
2018-02-20T22:44:48.719Z,85.30
2018-02-20T22:47:16.166Z,85.40
2018-02-20T22:49:43.724Z,85.40
2018-02-20T22:52:11.187Z,85.40
2018-02-20T22:54:38.659Z,85.40
2018-02-20T22:57:06.112Z,85.40
2018-02-20T22:59:33.581Z,85.50
2018-02-20T23:02:01.039Z,85.60
2018-02-20T23:04:28.519Z,85.50
2018-02-20T23:06:55.958Z,85.50
2018-02-20T23:09:23.403Z,85.60
2018-02-20T23:11:51.720Z,85.60
2018-02-20T23:14:19.165Z,85.50
2018-02-20T23:16:46.625Z,85.60
2018-02-20T23:19:14.055Z,85.60
2018-02-20T23:21:41.503Z,85.60
2018-02-20T23:24:08.977Z,85.50
2018-02-20T23:26:36.414Z,85.50
2018-02-20T23:29:03.862Z,85.70
2018-02-20T23:31:31.339Z,85.80
2018-02-20T23:33:58.784Z,85.80
2018-02-20T23:36:26.240Z,85.80
2018-02-20T23:38:53.687Z,85.80
2018-02-20T23:41:21.166Z,85.90
2018-02-20T23:43:48.626Z,85.90
2018-02-20T23:46:16.074Z,85.90
2018-02-20T23:48:43.546Z,85.80
2018-02-20T23:51:16.630Z,85.70
2018-02-20T23:53:44.103Z,85.90
2018-02-20T23:56:11.548Z,86.00
2018-02-20T23:58:38.991Z,86.10
